Time;durP1;ratioP1;P1;durP2;ratioP2;P2;SDS_P1;SDS_P2;PMS_P1;PMS_P2;Temp;Humidity;BMP_temperature;BMP_pressure;BME280_temperature;BME280_humidity;BME280_pressure;Samples;Min_cycle;Max_cycle;Signal;HPM_P1;HPM_P2
2023/03/22 00:01:45;;;;;;;2.40;1.75;;;9.70;99.90;;;;;;5070193;28;21022;-75
2023/03/22 00:04:11;;;;;;;3.27;1.70;;;9.70;99.90;;;;;;5063123;28;20967;-75
2023/03/22 00:06:37;;;;;;;2.53;1.52;;;9.70;99.90;;;;;;5068197;28;20440;-75
2023/03/22 00:09:04;;;;;;;3.28;1.70;;;9.80;99.90;;;;;;5050565;28;20415;-75
2023/03/22 00:11:30;;;;;;;2.75;1.70;;;9.80;99.90;;;;;;5067297;28;20439;-75
2023/03/22 00:13:57;;;;;;;3.28;1.80;;;9.70;99.90;;;;;;5069713;28;20476;-75
2023/03/22 00:16:25;;;;;;;2.83;1.58;;;9.70;99.90;;;;;;5070723;28;20408;-75
2023/03/22 00:18:51;;;;;;;2.80;1.70;;;9.60;99.90;;;;;;5072754;28;20528;-75
2023/03/22 00:21:18;;;;;;;5.32;2.08;;;9.60;99.90;;;;;;5069228;28;20410;-75
2023/03/22 00:23:45;;;;;;;3.08;1.70;;;9.60;99.90;;;;;;5059003;28;20534;-75
2023/03/22 00:26:13;;;;;;;3.70;1.83;;;9.60;99.90;;;;;;5053177;28;20412;-75
2023/03/22 00:28:41;;;;;;;2.88;1.80;;;9.60;99.90;;;;;;5070732;28;20498;-75
2023/03/22 00:31:08;;;;;;;5.20;1.92;;;9.60;99.90;;;;;;5090837;27;20415;-75
2023/03/22 00:33:35;;;;;;;3.28;1.83;;;9.60;99.90;;;;;;5071829;28;20424;-75
2023/03/22 00:36:10;;;;;;;3.17;1.90;;;9.60;99.90;;;;;;5058778;28;20420;-75
2023/03/22 00:38:37;;;;;;;4.43;2.10;;;9.50;99.90;;;;;;5059474;28;20405;-75
2023/03/22 00:41:09;;;;;;;3.85;1.83;;;9.40;99.90;;;;;;5072352;28;20399;-75
2023/03/22 00:43:36;;;;;;;4.43;1.98;;;9.40;99.90;;;;;;5075070;28;20426;-75
2023/03/22 00:46:04;;;;;;;3.17;1.88;;;9.40;99.90;;;;;;5073992;28;20420;-75
2023/03/22 00:48:30;;;;;;;3.03;1.95;;;9.40;99.90;;;;;;5085322;28;20429;-75
2023/03/22 00:50:57;;;;;;;2.40;1.80;;;9.40;99.90;;;;;;5059696;28;21350;-75
2023/03/22 00:53:24;;;;;;;3.60;2.05;;;9.40;99.90;;;;;;5071178;28;20933;-75
2023/03/22 00:55:51;;;;;;;3.28;1.80;;;9.30;99.90;;;;;;5079807;28;20448;-75
2023/03/22 00:58:17;;;;;;;3.42;1.80;;;9.30;99.90;;;;;;5073669;28;20511;-74
2023/03/22 01:00:44;;;;;;;2.35;1.73;;;9.30;99.90;;;;;;5073404;28;20469;-76
2023/03/22 01:03:13;;;;;;;5.10;1.98;;;9.40;99.90;;;;;;5077059;28;20441;-76
2023/03/22 01:05:39;;;;;;;3.78;1.90;;;9.50;99.90;;;;;;5076472;28;20417;-76
2023/03/22 01:08:07;;;;;;;3.95;1.70;;;9.50;99.90;;;;;;5078336;28;20509;-76
2023/03/22 01:10:42;;;;;;;4.68;1.88;;;9.50;99.90;;;;;;5078718;28;21458;-76
2023/03/22 01:13:10;;;;;;;2.85;1.80;;;9.50;99.90;;;;;;5075623;28;20435;-76
2023/03/22 01:15:37;;;;;;;5.60;1.90;;;9.50;99.90;;;;;;5073099;28;20471;-76
2023/03/22 01:18:03;;;;;;;3.80;2.00;;;9.70;99.90;;;;;;5070110;28;21149;-76
2023/03/22 01:20:31;;;;;;;3.47;1.90;;;9.80;99.90;;;;;;5073099;28;20452;-76
2023/03/22 01:22:57;;;;;;;2.97;1.90;;;9.70;99.90;;;;;;5071043;28;20407;-76
2023/03/22 01:25:26;;;;;;;4.68;1.95;;;9.70;99.90;;;;;;5058974;28;20462;-76
2023/03/22 01:27:52;;;;;;;3.75;1.98;;;9.70;99.90;;;;;;5054980;28;20415;-76
2023/03/22 01:30:19;;;;;;;3.80;1.90;;;9.60;99.90;;;;;;5073891;28;20414;-76
2023/03/22 01:32:45;;;;;;;3.20;1.80;;;9.60;99.90;;;;;;5070484;28;20408;-76
2023/03/22 01:35:12;;;;;;;3.70;2.25;;;9.60;99.90;;;;;;5071734;28;20419;-76
2023/03/22 01:37:38;;;;;;;4.45;2.15;;;9.50;99.90;;;;;;5070692;28;20854;-76
2023/03/22 01:40:05;;;;;;;3.92;2.25;;;9.50;99.90;;;;;;5068578;28;20426;-76
2023/03/22 01:42:31;;;;;;;5.25;2.33;;;9.50;99.90;;;;;;5100904;27;20418;-75
2023/03/22 01:45:13;;;;;;;2.85;2.10;;;9.60;99.90;;;;;;5071006;28;21070;-76
2023/03/22 01:47:54;;;;;;;6.97;2.30;;;9.60;99.90;;;;;;5074570;28;20418;-76
2023/03/22 01:50:23;;;;;;;3.25;2.10;;;9.50;99.90;;;;;;5076640;28;20425;-75
2023/03/22 01:52:51;;;;;;;4.00;1.83;;;9.50;99.90;;;;;;5070515;28;20405;-75
2023/03/22 01:55:21;;;;;;;3.80;1.87;;;9.40;99.90;;;;;;5067979;28;20402;-75
2023/03/22 01:57:49;;;;;;;4.50;2.08;;;9.50;99.90;;;;;;5059365;28;20404;-75
2023/03/22 02:00:17;;;;;;;4.38;1.98;;;9.50;99.90;;;;;;5071227;28;21038;-75
2023/03/22 02:02:49;;;;;;;4.18;1.92;;;9.50;99.90;;;;;;5075413;28;20485;-75
2023/03/22 02:05:17;;;;;;;3.03;1.80;;;9.50;99.90;;;;;;5068746;28;21195;-74
2023/03/22 02:07:44;;;;;;;4.38;1.92;;;9.50;99.90;;;;;;5101409;27;20411;-74
2023/03/22 02:11:07;;;;;;;6.93;1.95;;;9.40;99.90;;;;;;5076927;28;20437;-74
2023/03/22 02:14:07;;;;;;;5.07;1.83;;;9.40;99.90;;;;;;5075139;28;20886;-74
2023/03/22 02:16:52;;;;;;;3.80;1.90;;;9.40;99.90;;;;;;5098409;27;20429;-75
2023/03/22 02:20:09;;;;;;;3.60;1.85;;;9.40;99.90;;;;;;5072202;28;20448;-75
2023/03/22 02:22:41;;;;;;;4.33;1.70;;;9.30;99.90;;;;;;5067474;28;20415;-75
2023/03/22 02:25:44;;;;;;;4.18;1.90;;;9.30;99.90;;;;;;5056300;28;20807;-74
2023/03/22 02:28:34;;;;;;;2.97;1.70;;;9.30;99.90;;;;;;5067950;28;20402;-76
2023/03/22 02:31:13;;;;;;;4.28;1.80;;;9.40;99.90;;;;;;5071969;28;20426;-75
2023/03/22 02:34:15;;;;;;;4.03;1.80;;;9.40;99.90;;;;;;5068108;28;20419;-75
2023/03/22 02:37:42;;;;;;;2.75;1.75;;;9.30;99.90;;;;;;5095151;27;20403;-76
2023/03/22 02:40:29;;;;;;;3.40;1.95;;;9.30;99.90;;;;;;5067849;28;20791;-76
2023/03/22 02:43:17;;;;;;;4.60;1.90;;;9.30;99.90;;;;;;5068281;28;20462;-75
2023/03/22 02:46:18;;;;;;;4.35;1.70;;;9.30;99.90;;;;;;5068868;28;22333;-76
2023/03/22 02:49:40;;;;;;;3.63;1.90;;;9.30;99.90;;;;;;5054835;28;20410;-76
2023/03/22 02:52:43;;;;;;;3.45;1.95;;;9.30;99.90;;;;;;5071427;28;20416;-75
2023/03/22 02:55:25;;;;;;;3.30;1.80;;;9.30;99.90;;;;;;5070353;28;20430;-75
2023/03/22 02:58:17;;;;;;;3.07;1.50;;;9.30;99.90;;;;;;5069441;28;20546;-75
2023/03/22 03:00:48;;;;;;;2.70;1.70;;;9.40;99.90;;;;;;5067963;28;20417;-75
2023/03/22 03:03:18;;;;;;;2.75;1.60;;;9.40;99.90;;;;;;5099563;27;20943;-75
2023/03/22 03:05:56;;;;;;;2.90;1.70;;;9.50;99.90;;;;;;5071107;28;20412;-75
2023/03/22 03:08:25;;;;;;;3.65;1.80;;;9.60;99.90;;;;;;5068671;28;20481;-75
2023/03/22 03:10:53;;;;;;;4.97;1.88;;;9.60;99.90;;;;;;5065932;28;20475;-75
2023/03/22 03:13:20;;;;;;;2.70;1.60;;;9.60;99.90;;;;;;5076349;28;20409;-75
2023/03/22 03:15:53;;;;;;;3.33;1.80;;;9.60;99.90;;;;;;5084005;28;20405;-75
2023/03/22 03:18:45;;;;;;;3.47;1.70;;;9.50;99.90;;;;;;5070186;28;20419;-75
2023/03/22 03:21:28;;;;;;;3.45;1.50;;;9.60;99.90;;;;;;5056410;28;20499;-76
2023/03/22 03:24:22;;;;;;;3.08;1.70;;;9.60;99.90;;;;;;5095914;27;20440;-76
2023/03/22 03:27:10;;;;;;;3.47;1.63;;;9.60;99.90;;;;;;5068406;28;20419;-76
2023/03/22 03:29:39;;;;;;;2.60;1.77;;;9.70;99.90;;;;;;5069483;28;20422;-76
2023/03/22 03:32:34;;;;;;;3.58;1.70;;;9.70;99.90;;;;;;5070226;28;20906;-76
2023/03/22 03:35:09;;;;;;;3.95;1.90;;;9.70;99.90;;;;;;5073248;28;20422;-76
2023/03/22 03:37:52;;;;;;;3.22;1.75;;;9.60;99.90;;;;;;5082830;28;20447;-75
2023/03/22 03:40:38;;;;;;;3.88;1.70;;;9.60;99.90;;;;;;5070659;28;20787;-76
2023/03/22 03:43:06;;;;;;;3.70;1.80;;;9.50;99.90;;;;;;5066040;28;20478;-75
2023/03/22 03:45:35;;;;;;;4.93;1.80;;;9.50;99.90;;;;;;5073293;27;20506;-74
2023/03/22 03:48:11;;;;;;;3.87;1.70;;;9.50;99.90;;;;;;5070997;28;20419;-75
2023/03/22 03:50:38;;;;;;;4.37;1.70;;;9.50;99.90;;;;;;5054082;28;20514;-75
2023/03/22 03:53:05;;;;;;;5.18;1.80;;;9.50;99.90;;;;;;5051448;28;21085;-75
2023/03/22 03:55:32;;;;;;;3.80;1.70;;;9.50;99.90;;;;;;5068950;28;20466;-75
2023/03/22 03:57:58;;;;;;;7.18;1.83;;;9.60;99.90;;;;;;5072653;28;21010;-75
2023/03/22 04:00:25;;;;;;;3.65;1.70;;;9.60;99.90;;;;;;5069227;28;20407;-75
2023/03/22 04:02:51;;;;;;;3.50;1.67;;;9.60;99.90;;;;;;5070409;28;20436;-75
2023/03/22 04:05:17;;;;;;;3.50;1.70;;;9.60;99.90;;;;;;5068834;28;21022;-75
2023/03/22 04:07:44;;;;;;;2.97;1.60;;;9.60;99.90;;;;;;5073882;28;20399;-75
2023/03/22 04:10:11;;;;;;;3.53;1.60;;;9.70;99.90;;;;;;5053640;28;20922;-75
2023/03/22 04:12:37;;;;;;;3.83;1.80;;;9.70;99.90;;;;;;5075233;28;20585;-75
2023/03/22 04:15:04;;;;;;;4.43;1.90;;;9.80;99.90;;;;;;5069247;28;21092;-76
2023/03/22 04:17:30;;;;;;;3.07;1.70;;;9.80;99.90;;;;;;5069215;28;20463;-75
2023/03/22 04:19:57;;;;;;;3.70;1.98;;;9.80;99.90;;;;;;5071469;28;20470;-75
2023/03/22 04:22:24;;;;;;;2.90;1.70;;;9.70;99.90;;;;;;5070418;28;20423;-75
2023/03/22 04:24:50;;;;;;;3.17;1.60;;;9.70;99.90;;;;;;5073254;28;20929;-75
2023/03/22 04:27:17;;;;;;;4.13;1.90;;;9.70;99.90;;;;;;5069150;28;20406;-76
2023/03/22 04:29:51;;;;;;;4.05;1.70;;;9.80;99.90;;;;;;5072456;28;21620;-76
2023/03/22 04:32:21;;;;;;;3.35;1.80;;;9.80;99.90;;;;;;5069222;28;20414;-76
2023/03/22 04:34:52;;;;;;;3.67;1.77;;;9.80;99.90;;;;;;5069597;28;20488;-76
2023/03/22 04:37:21;;;;;;;4.45;1.90;;;9.90;99.90;;;;;;5069975;28;20506;-76
2023/03/22 04:39:47;;;;;;;3.25;1.90;;;9.90;99.90;;;;;;5068133;28;20412;-76
2023/03/22 04:42:14;;;;;;;4.55;1.88;;;9.90;99.90;;;;;;5068741;28;20407;-76
2023/03/22 04:44:40;;;;;;;3.88;1.83;;;10.00;99.90;;;;;;5069729;28;20782;-75
2023/03/22 04:47:07;;;;;;;2.90;1.88;;;10.10;99.90;;;;;;5055149;28;20436;-75
2023/03/22 04:49:33;;;;;;;3.00;1.90;;;10.20;99.90;;;;;;5067438;28;20951;-75
2023/03/22 04:51:59;;;;;;;3.97;1.98;;;10.20;99.90;;;;;;5072151;28;20406;-75
2023/03/22 04:54:25;;;;;;;3.80;1.90;;;10.30;99.90;;;;;;5070035;28;20891;-75
2023/03/22 04:56:52;;;;;;;3.03;2.00;;;10.30;99.90;;;;;;5069086;28;20443;-77
2023/03/22 04:59:19;;;;;;;2.63;1.70;;;10.30;99.90;;;;;;5072089;28;20457;-77
2023/03/22 05:01:47;;;;;;;4.18;1.90;;;10.30;99.90;;;;;;5065357;28;20900;-76
2023/03/22 05:04:15;;;;;;;3.28;1.98;;;10.30;99.90;;;;;;5097591;28;20417;-75
2023/03/22 05:06:41;;;;;;;3.67;1.98;;;10.40;99.90;;;;;;5066575;28;20952;-76
2023/03/22 05:09:09;;;;;;;4.10;1.88;;;10.40;99.90;;;;;;5066173;28;20778;-76
2023/03/22 05:11:35;;;;;;;3.15;1.80;;;10.50;99.90;;;;;;5066851;28;20502;-76
2023/03/22 05:14:03;;;;;;;2.45;1.90;;;10.60;99.90;;;;;;5054092;28;20467;-76
2023/03/22 05:16:29;;;;;;;3.95;2.00;;;10.70;99.90;;;;;;5098759;27;20421;-76
2023/03/22 05:18:55;;;;;;;5.35;2.10;;;10.70;99.90;;;;;;5072031;28;20468;-76
2023/03/22 05:21:27;;;;;;;3.97;1.95;;;10.80;99.90;;;;;;5083543;27;20400;-76
2023/03/22 05:23:55;;;;;;;2.53;1.85;;;10.90;99.90;;;;;;5071881;28;21198;-75
2023/03/22 05:26:25;;;;;;;2.87;1.80;;;11.10;99.90;;;;;;5072694;28;20414;-76
2023/03/22 05:28:53;;;;;;;4.00;1.70;;;11.20;99.90;;;;;;5069224;28;20496;-76
2023/03/22 05:31:22;;;;;;;3.53;1.80;;;11.30;99.90;;;;;;5073977;28;20418;-76
2023/03/22 05:33:52;;;;;;;3.85;1.80;;;11.60;99.90;;;;;;5072812;28;20850;-76
2023/03/22 05:36:21;;;;;;;2.75;1.88;;;11.70;99.90;;;;;;5101199;27;20431;-76
2023/03/22 05:38:48;;;;;;;4.20;1.88;;;11.70;99.90;;;;;;5071999;28;21248;-76
2023/03/22 05:41:14;;;;;;;3.70;1.85;;;11.70;99.90;;;;;;5069672;28;20549;-75
2023/03/22 05:43:41;;;;;;;3.70;1.60;;;11.80;99.90;;;;;;5072189;28;20414;-75
2023/03/22 05:46:10;;;;;;;2.90;1.80;;;11.90;99.90;;;;;;5072407;28;20504;-75
2023/03/22 05:48:38;;;;;;;2.72;1.70;;;11.80;99.90;;;;;;5072156;28;20443;-75
2023/03/22 05:51:12;;;;;;;4.78;1.90;;;11.80;99.90;;;;;;5074676;28;20811;-76
2023/03/22 05:53:38;;;;;;;2.67;1.90;;;11.80;99.90;;;;;;5077087;28;20522;-77
2023/03/22 05:56:08;;;;;;;3.80;1.90;;;11.90;99.90;;;;;;5077750;28;20436;-77
2023/03/22 05:58:35;;;;;;;4.55;2.10;;;12.00;99.90;;;;;;5072797;28;20452;-75
2023/03/22 06:01:08;;;;;;;3.40;2.10;;;12.20;99.90;;;;;;5072508;28;20436;-75
2023/03/22 06:03:34;;;;;;;5.28;2.05;;;12.30;99.90;;;;;;5070089;28;20419;-75
2023/03/22 06:06:01;;;;;;;4.85;2.28;;;12.40;99.90;;;;;;5070381;28;20849;-75
2023/03/22 06:08:27;;;;;;;5.55;2.30;;;12.40;99.90;;;;;;5073235;28;20412;-76
2023/03/22 06:10:53;;;;;;;5.28;2.35;;;12.50;99.90;;;;;;5070111;28;20454;-75
2023/03/22 06:13:20;;;;;;;5.43;2.55;;;12.50;99.90;;;;;;5068792;28;20413;-76
2023/03/22 06:15:47;;;;;;;7.17;3.00;;;12.60;99.90;;;;;;5075301;28;20988;-76
2023/03/22 06:18:13;;;;;;;6.65;3.17;;;12.60;99.90;;;;;;5068569;28;20456;-76
2023/03/22 06:20:40;;;;;;;6.07;3.60;;;12.70;99.90;;;;;;5070908;28;20411;-76
2023/03/22 06:23:06;;;;;;;8.30;3.85;;;12.80;99.90;;;;;;5071521;28;20420;-76
2023/03/22 06:25:33;;;;;;;10.00;3.83;;;12.90;99.90;;;;;;5056589;28;20534;-76
2023/03/22 06:28:00;;;;;;;8.60;4.10;;;12.90;99.90;;;;;;5068768;28;20424;-76
2023/03/22 06:30:27;;;;;;;9.07;4.23;;;13.00;99.90;;;;;;5088828;28;20957;-76
2023/03/22 06:32:53;;;;;;;11.63;4.70;;;13.00;99.90;;;;;;5077572;28;20416;-75
2023/03/22 06:35:20;;;;;;;9.25;4.55;;;13.30;99.90;;;;;;5067317;28;20469;-76
2023/03/22 06:37:46;;;;;;;11.13;5.10;;;13.30;99.90;;;;;;5067710;28;20853;-77
2023/03/22 06:40:12;;;;;;;8.35;4.53;;;13.20;99.90;;;;;;5053296;28;20494;-77
2023/03/22 06:42:38;;;;;;;10.57;5.60;;;13.20;99.90;;;;;;5099202;27;20465;-77
2023/03/22 06:45:06;;;;;;;10.45;5.88;;;13.20;99.90;;;;;;5068195;28;20788;-77
2023/03/22 06:47:33;;;;;;;9.63;5.20;;;13.30;99.90;;;;;;5070700;28;20907;-77
2023/03/22 06:49:59;;;;;;;10.25;5.18;;;13.40;99.90;;;;;;5072119;28;20507;-77
2023/03/22 06:52:25;;;;;;;9.97;5.60;;;13.40;99.90;;;;;;5099361;27;20999;-76
2023/03/22 06:54:51;;;;;;;7.90;5.18;;;13.40;99.90;;;;;;5074204;28;20505;-76
2023/03/22 06:57:18;;;;;;;10.70;5.45;;;13.40;99.90;;;;;;5054057;28;20472;-76
2023/03/22 06:59:44;;;;;;;10.15;5.55;;;13.50;99.90;;;;;;5101245;27;20406;-76
2023/03/22 07:02:11;;;;;;;10.93;5.82;;;13.60;99.90;;;;;;5055176;28;20434;-74
2023/03/22 07:04:38;;;;;;;10.95;5.60;;;13.60;99.90;;;;;;5097376;27;20419;-75
2023/03/22 07:07:05;;;;;;;8.83;5.37;;;13.60;99.90;;;;;;5068217;28;20402;-76
2023/03/22 07:09:31;;;;;;;8.63;5.00;;;13.60;99.90;;;;;;5067695;28;20823;-76
2023/03/22 07:11:57;;;;;;;10.10;5.63;;;13.70;99.90;;;;;;5053513;28;21010;-76
2023/03/22 07:14:24;;;;;;;8.65;5.18;;;13.70;99.90;;;;;;5065170;28;20519;-76
2023/03/22 07:16:50;;;;;;;9.70;5.20;;;13.70;99.90;;;;;;5069075;28;20406;-76
2023/03/22 07:19:17;;;;;;;11.52;5.68;;;13.70;99.90;;;;;;5054773;28;20408;-75
2023/03/22 07:21:43;;;;;;;9.85;5.55;;;13.70;99.90;;;;;;5066666;28;20933;-76
2023/03/22 07:24:10;;;;;;;13.00;5.88;;;13.70;99.90;;;;;;5068603;28;20419;-75
2023/03/22 07:26:38;;;;;;;8.68;5.65;;;13.80;99.90;;;;;;5063953;28;20914;-75
2023/03/22 07:29:05;;;;;;;11.88;6.13;;;13.80;99.90;;;;;;5072738;28;20412;-75
2023/03/22 07:31:35;;;;;;;11.02;5.60;;;13.70;99.90;;;;;;5066453;28;20452;-75
2023/03/22 07:34:03;;;;;;;13.75;6.22;;;13.70;99.90;;;;;;5070022;28;20409;-75
2023/03/22 07:36:29;;;;;;;10.25;5.75;;;13.80;99.90;;;;;;5065892;28;21112;-75
2023/03/22 07:38:56;;;;;;;10.88;5.82;;;13.90;99.90;;;;;;5065097;28;20471;-75
2023/03/22 07:41:23;;;;;;;9.40;5.80;;;13.90;99.90;;;;;;5069755;28;20432;-75
2023/03/22 07:43:49;;;;;;;11.07;5.68;;;13.90;99.90;;;;;;5052141;28;20415;-75
2023/03/22 07:46:16;;;;;;;12.77;6.20;;;13.90;99.90;;;;;;5064863;28;20411;-75
2023/03/22 07:48:42;;;;;;;12.43;5.80;;;14.00;99.90;;;;;;5064030;28;20789;-76
2023/03/22 07:51:09;;;;;;;12.00;6.00;;;14.10;99.90;;;;;;5066813;28;20411;-75
2023/03/22 07:53:35;;;;;;;8.73;5.80;;;14.20;99.90;;;;;;5063754;28;20408;-75
2023/03/22 07:56:05;;;;;;;10.83;5.90;;;14.40;99.90;;;;;;5083658;27;20436;-75
2023/03/22 07:58:33;;;;;;;10.10;5.38;;;14.40;99.90;;;;;;5065955;28;20460;-75
2023/03/22 08:01:07;;;;;;;10.75;6.18;;;14.40;99.90;;;;;;5067374;28;20545;-76
2023/03/22 08:03:35;;;;;;;8.23;5.70;;;14.50;99.90;;;;;;5070680;28;21145;-75
2023/03/22 08:06:06;;;;;;;10.93;6.07;;;14.40;99.90;;;;;;5053716;28;20413;-75
2023/03/22 08:08:35;;;;;;;13.52;6.35;;;14.20;99.90;;;;;;5083807;28;20455;-75
2023/03/22 08:11:03;;;;;;;9.48;5.80;;;13.80;99.90;;;;;;5096892;28;20422;-75
2023/03/22 08:13:29;;;;;;;11.77;5.70;;;13.60;99.90;;;;;;5048192;28;20450;-75
2023/03/22 08:15:56;;;;;;;10.88;5.97;;;13.50;99.90;;;;;;5050456;28;20438;-75
2023/03/22 08:18:22;;;;;;;8.93;5.38;;;13.60;99.90;;;;;;5066757;28;20895;-75
2023/03/22 08:20:57;;;;;;;12.10;6.10;;;13.50;99.90;;;;;;5070087;28;20418;-75
2023/03/22 08:23:27;;;;;;;11.50;5.73;;;13.40;99.90;;;;;;5067507;28;20467;-75
2023/03/22 08:25:53;;;;;;;10.35;5.43;;;13.40;99.90;;;;;;5070471;28;20411;-75
2023/03/22 08:28:20;;;;;;;10.47;5.80;;;13.30;99.90;;;;;;5065406;28;20403;-75
2023/03/22 08:30:48;;;;;;;11.48;6.20;;;13.40;99.90;;;;;;5065256;28;20419;-75
2023/03/22 08:33:15;;;;;;;9.77;5.70;;;13.30;99.90;;;;;;5064739;28;20406;-75
2023/03/22 08:35:42;;;;;;;11.75;5.63;;;13.30;99.90;;;;;;5070388;28;20442;-75
2023/03/22 08:38:08;;;;;;;9.43;5.30;;;13.30;99.90;;;;;;5067759;28;20413;-75
2023/03/22 08:40:34;;;;;;;9.50;5.75;;;13.30;99.90;;;;;;5073852;28;20427;-75
2023/03/22 08:43:00;;;;;;;13.13;6.13;;;13.50;99.90;;;;;;5096026;28;20933;-75
2023/03/22 08:45:27;;;;;;;10.32;5.93;;;13.70;99.90;;;;;;5054455;28;20411;-75
2023/03/22 08:47:54;;;;;;;10.40;5.50;;;13.70;99.90;;;;;;5067071;28;21290;-76
2023/03/22 08:50:20;;;;;;;9.20;5.50;;;13.70;99.90;;;;;;5101619;27;20974;-75
2023/03/22 08:52:46;;;;;;;10.73;5.95;;;13.80;99.90;;;;;;5070161;28;20776;-75
2023/03/22 08:55:13;;;;;;;10.73;5.53;;;13.70;99.90;;;;;;5070534;28;21115;-75
2023/03/22 08:57:39;;;;;;;8.63;5.50;;;13.60;99.90;;;;;;5072723;28;20486;-75
2023/03/22 09:00:09;;;;;;;8.35;5.50;;;13.50;99.90;;;;;;5074353;28;21133;-75
2023/03/22 09:02:35;;;;;;;12.05;5.95;;;13.50;99.90;;;;;;5082258;28;20412;-75
2023/03/22 09:05:01;;;;;;;9.52;5.30;;;13.50;99.90;;;;;;5079703;28;20959;-75
2023/03/22 09:07:27;;;;;;;10.63;5.13;;;13.50;99.90;;;;;;5073183;27;20415;-75
2023/03/22 09:09:54;;;;;;;8.50;5.28;;;13.50;99.90;;;;;;5070783;28;20405;-75
2023/03/22 09:12:20;;;;;;;10.32;5.32;;;13.50;99.90;;;;;;5078203;28;20451;-75
2023/03/22 09:14:48;;;;;;;9.53;5.30;;;13.50;99.90;;;;;;5070972;28;20498;-75
2023/03/22 09:17:17;;;;;;;12.23;5.60;;;13.60;99.90;;;;;;5067719;28;20415;-75
2023/03/22 09:19:46;;;;;;;8.87;5.30;;;13.60;99.90;;;;;;5090356;28;20432;-75
2023/03/22 09:25:32;;;;;;;10.98;5.70;;;13.70;99.90;;;;;;5074725;28;20482;-75
2023/03/22 09:27:58;;;;;;;9.52;5.50;;;13.70;99.90;;;;;;5069750;28;20414;-75
2023/03/22 09:30:25;;;;;;;13.07;6.00;;;13.70;99.90;;;;;;5075304;28;21189;-75
2023/03/22 09:32:51;;;;;;;10.77;5.53;;;13.70;99.90;;;;;;5077290;28;20418;-75
2023/03/22 09:35:17;;;;;;;10.23;5.73;;;13.70;99.90;;;;;;5072925;28;20965;-75
2023/03/22 09:37:44;;;;;;;9.50;5.45;;;13.70;99.90;;;;;;5072496;28;20419;-75
2023/03/22 09:40:12;;;;;;;10.15;5.40;;;13.80;99.90;;;;;;5105676;27;20479;-75
2023/03/22 09:42:50;;;;;;;7.97;5.00;;;13.80;99.90;;;;;;5084350;28;21074;-75
2023/03/22 09:45:31;;;;;;;8.95;5.53;;;13.90;99.90;;;;;;5071982;28;20940;-75
2023/03/22 09:47:59;;;;;;;8.98;5.22;;;13.80;99.90;;;;;;5056225;28;20445;-75
2023/03/22 09:50:31;;;;;;;7.88;4.72;;;13.90;99.90;;;;;;5072176;28;20426;-75
2023/03/22 09:52:59;;;;;;;12.38;5.47;;;13.90;99.90;;;;;;5073138;28;20927;-75
2023/03/22 09:55:43;;;;;;;6.03;4.55;;;13.90;99.90;;;;;;5095569;27;20409;-75
2023/03/22 09:58:24;;;;;;;9.02;5.38;;;14.00;99.90;;;;;;5077201;28;21125;-75
2023/03/22 10:01:05;;;;;;;7.15;5.00;;;13.90;99.90;;;;;;5072310;28;20404;-75
2023/03/22 10:04:05;;;;;;;9.73;5.18;;;13.80;99.90;;;;;;5104670;27;20454;-75
2023/03/22 10:06:32;;;;;;;9.10;5.28;;;13.70;99.90;;;;;;5074484;28;20450;-75
2023/03/22 10:09:27;;;;;;;10.85;5.38;;;13.80;99.90;;;;;;5073626;28;20501;-75
2023/03/22 10:12:21;;;;;;;10.15;5.20;;;13.80;99.90;;;;;;5082057;28;20411;-75
2023/03/22 10:15:09;;;;;;;10.05;5.15;;;13.80;99.90;;;;;;5065414;28;20636;-75
2023/03/22 10:17:38;;;;;;;7.43;4.75;;;13.90;99.90;;;;;;5065310;28;20782;-75
2023/03/22 10:20:28;;;;;;;7.23;4.77;;;13.90;99.90;;;;;;5066641;28;20548;-75
2023/03/22 10:22:58;;;;;;;8.40;5.25;;;14.00;99.90;;;;;;5088924;28;21108;-75
2023/03/22 10:25:35;;;;;;;9.82;4.88;;;14.10;99.90;;;;;;5076843;28;20423;-75
2023/03/22 10:28:15;;;;;;;6.65;4.53;;;14.10;99.90;;;;;;5069492;28;20878;-75
2023/03/22 10:30:49;;;;;;;11.03;5.37;;;14.20;99.90;;;;;;5069254;28;20552;-75
2023/03/22 10:33:56;;;;;;;9.05;4.90;;;14.20;99.90;;;;;;5071198;28;20463;-75
2023/03/22 10:36:33;;;;;;;8.10;4.65;;;14.30;99.90;;;;;;5068197;28;20418;-75
2023/03/22 10:39:32;;;;;;;9.43;4.97;;;14.40;99.90;;;;;;5071795;28;20935;-75
2023/03/22 10:42:10;;;;;;;9.27;4.82;;;14.50;99.90;;;;;;5102513;27;20406;-76
2023/03/22 10:44:54;;;;;;;9.27;4.60;;;14.50;99.90;;;;;;5073612;28;20426;-75
2023/03/22 10:47:41;;;;;;;7.97;4.23;;;14.50;99.90;;;;;;5072876;28;20427;-74
2023/03/22 10:50:25;;;;;;;6.70;3.72;;;14.60;99.90;;;;;;5101719;27;21200;-75
2023/03/22 10:53:26;;;;;;;6.85;3.63;;;14.50;99.90;;;;;;5071657;28;20483;-75
2023/03/22 10:55:53;;;;;;;6.50;3.47;;;14.60;99.90;;;;;;5071569;28;20409;-75
2023/03/22 10:58:22;;;;;;;4.82;3.47;;;14.50;99.90;;;;;;5070165;28;20423;-75
2023/03/22 11:00:52;;;;;;;9.73;4.20;;;14.60;99.90;;;;;;5072910;28;20542;-75
2023/03/22 11:03:45;;;;;;;7.05;4.10;;;14.60;99.90;;;;;;5069878;28;20416;-75
2023/03/22 11:06:22;;;;;;;5.53;3.87;;;14.70;99.90;;;;;;5068160;28;20480;-75
2023/03/22 11:09:15;;;;;;;6.63;4.22;;;14.80;99.90;;;;;;5073701;28;21234;-74
2023/03/22 11:11:53;;;;;;;6.70;3.70;;;14.90;99.90;;;;;;5069391;28;20406;-75
2023/03/22 11:14:46;;;;;;;5.32;3.40;;;15.00;99.90;;;;;;5071815;28;20451;-75
2023/03/22 11:17:21;;;;;;;4.82;3.53;;;15.00;99.90;;;;;;5071206;28;20424;-75
2023/03/22 11:19:59;;;;;;;7.38;3.97;;;15.10;99.90;;;;;;5070864;28;20418;-74
2023/03/22 11:22:40;;;;;;;7.73;4.30;;;15.10;99.90;;;;;;5103286;27;20420;-74
2023/03/22 11:25:17;;;;;;;6.57;4.10;;;15.20;99.90;;;;;;5077200;28;20411;-75
2023/03/22 11:28:04;;;;;;;7.57;4.00;;;15.20;99.90;;;;;;5092074;27;20756;-74
2023/03/22 11:30:33;;;;;;;6.30;3.90;;;15.40;99.90;;;;;;5078569;28;20778;-75
2023/03/22 11:33:08;;;;;;;7.23;3.80;;;15.50;99.90;;;;;;5104415;27;20452;-74
2023/03/22 11:35:38;;;;;;;8.13;3.83;;;15.60;99.90;;;;;;5072324;28;20425;-75
2023/03/22 11:38:05;;;;;;;5.25;3.85;;;15.50;99.90;;;;;;5069872;28;20502;-74
2023/03/22 11:40:35;;;;;;;6.70;3.97;;;15.50;99.90;;;;;;5070823;28;20480;-75
2023/03/22 11:43:26;;;;;;;6.57;3.95;;;15.40;99.90;;;;;;5071314;28;20454;-74
2023/03/22 11:45:57;;;;;;;6.22;3.90;;;15.40;99.90;;;;;;5101255;27;20849;-75
2023/03/22 11:48:27;;;;;;;6.37;3.70;;;15.50;99.90;;;;;;5064432;28;20443;-75
2023/03/22 11:51:09;;;;;;;7.20;3.55;;;15.60;99.90;;;;;;5072603;28;20424;-74
2023/03/22 11:53:46;;;;;;;5.97;3.30;;;15.60;99.90;;;;;;5074257;28;21460;-75
2023/03/22 11:56:24;;;;;;;6.05;3.17;;;15.40;99.90;;;;;;5091386;27;21033;-75
2023/03/22 11:59:24;;;;;;;6.22;3.28;;;15.50;99.90;;;;;;5072181;28;20411;-74
2023/03/22 12:02:22;;;;;;;5.38;3.10;;;15.40;99.90;;;;;;5069551;28;20412;-75
2023/03/22 12:05:00;;;;;;;5.72;3.00;;;15.40;99.90;;;;;;5053892;28;20463;-75
2023/03/22 12:07:30;;;;;;;4.73;2.80;;;15.40;99.90;;;;;;5068920;28;20903;-75
2023/03/22 12:10:14;;;;;;;5.03;3.03;;;15.40;99.90;;;;;;5064513;28;20421;-75
2023/03/22 12:12:53;;;;;;;6.47;3.05;;;15.50;99.90;;;;;;5097887;27;20510;-74
2023/03/22 12:15:27;;;;;;;5.73;3.50;;;15.60;99.90;;;;;;5065700;28;20765;-74
2023/03/22 12:18:07;;;;;;;6.97;4.10;;;15.80;99.90;;;;;;5099969;28;20732;-75
2023/03/22 12:20:54;;;;;;;10.57;4.20;;;15.90;99.90;;;;;;5068115;28;20524;-74
2023/03/22 12:23:28;;;;;;;7.05;4.22;;;16.20;99.90;;;;;;5075115;28;20447;-74
2023/03/22 12:26:17;;;;;;;7.40;4.30;;;16.10;99.90;;;;;;5072856;28;20913;-74
2023/03/22 12:28:59;;;;;;;8.05;4.38;;;16.00;99.90;;;;;;5073265;28;20457;-74
2023/03/22 12:31:35;;;;;;;7.82;5.05;;;16.00;99.90;;;;;;5073264;28;20956;-75
2023/03/22 12:34:21;;;;;;;8.20;4.53;;;15.90;99.90;;;;;;5074480;28;20863;-74
2023/03/22 12:36:54;;;;;;;7.20;4.28;;;15.80;99.90;;;;;;5070819;28;21307;-74
2023/03/22 12:39:42;;;;;;;10.07;4.95;;;15.70;99.90;;;;;;5062259;28;20405;-74
2023/03/22 12:42:30;;;;;;;9.38;5.00;;;15.60;99.90;;;;;;5071739;28;20435;-75
2023/03/22 12:45:03;;;;;;;11.05;5.43;;;15.60;99.90;;;;;;5101904;27;20506;-74
2023/03/22 12:47:56;;;;;;;12.02;5.32;;;15.60;99.90;;;;;;5067961;28;21252;-75
2023/03/22 12:50:48;;;;;;;10.02;5.40;;;15.50;99.90;;;;;;5065055;28;20432;-75
2023/03/22 12:53:19;;;;;;;10.88;5.57;;;15.60;99.90;;;;;;5075365;28;20417;-75
2023/03/22 12:55:48;;;;;;;11.48;5.53;;;15.60;99.90;;;;;;5073837;28;20407;-75
2023/03/22 12:58:22;;;;;;;10.32;5.70;;;15.60;99.90;;;;;;5080226;28;20416;-74
2023/03/22 13:00:53;;;;;;;9.17;5.13;;;15.70;99.90;;;;;;5076765;28;20804;-75
2023/03/22 13:03:35;;;;;;;11.75;4.80;;;15.50;99.90;;;;;;5103703;27;20418;-75
2023/03/22 13:06:26;;;;;;;8.38;4.38;;;15.40;99.90;;;;;;5084144;28;20409;-75
2023/03/22 13:09:35;;;;;;;7.63;4.07;;;15.20;99.90;;;;;;5072274;28;20421;-75
2023/03/22 13:12:17;;;;;;;8.98;4.25;;;15.00;99.90;;;;;;5088269;27;20531;-75
2023/03/22 13:14:50;;;;;;;7.88;4.32;;;15.10;99.90;;;;;;5075760;28;20491;-75
2023/03/22 13:17:22;;;;;;;7.63;4.20;;;15.20;99.90;;;;;;5073624;28;20409;-75
2023/03/22 13:20:13;;;;;;;9.38;4.88;;;15.20;99.90;;;;;;5073707;28;20410;-75
2023/03/22 13:22:40;;;;;;;8.20;4.65;;;15.20;99.90;;;;;;5071447;28;21085;-75